Time;durP1;ratioP1;P1;durP2;ratioP2;P2;SDS_P1;SDS_P2;PMS_P1;PMS_P2;Temp;Humidity;BMP_temperature;BMP_pressure;BME280_temperature;BME280_humidity;BME280_pressure;Samples;Min_cycle;Max_cycle;Signal;HPM_P1;HPM_P2
2023/08/18 00:00:25;;;;;;;6.68;0.98;;;15.70;99.90;;;;;;5044325;28;20091;-91
2023/08/18 00:02:51;;;;;;;6.60;1.00;;;15.70;99.90;;;;;;5052361;28;20033;-91
2023/08/18 00:05:16;;;;;;;4.05;1.08;;;15.60;99.90;;;;;;5057527;28;20024;-90
2023/08/18 00:07:42;;;;;;;2.10;0.93;;;15.60;99.90;;;;;;5057263;28;20029;-91
2023/08/18 00:10:08;;;;;;;6.55;1.00;;;15.60;99.90;;;;;;5058762;28;20124;-92
2023/08/18 00:12:34;;;;;;;3.47;1.10;;;15.60;99.90;;;;;;5058845;28;20697;-91
2023/08/18 00:15:01;;;;;;;4.32;1.25;;;15.60;99.90;;;;;;5058380;28;20025;-91
2023/08/18 00:17:27;;;;;;;6.20;1.40;;;15.50;99.90;;;;;;5059067;28;20025;-94
2023/08/18 00:19:53;;;;;;;3.17;1.00;;;15.50;99.90;;;;;;5062215;28;20115;-93
2023/08/18 00:22:18;;;;;;;6.38;1.17;;;15.50;99.90;;;;;;5063908;28;20379;-92
2023/08/18 00:24:44;;;;;;;4.75;1.40;;;15.50;99.90;;;;;;5063185;28;20028;-91
2023/08/18 00:27:10;;;;;;;7.55;1.30;;;15.50;99.90;;;;;;5063232;28;20037;-92
2023/08/18 00:29:36;;;;;;;4.40;1.20;;;15.50;99.90;;;;;;5063125;28;20029;-93
2023/08/18 00:32:02;;;;;;;3.00;1.20;;;15.50;99.90;;;;;;5062823;28;20032;-92
2023/08/18 00:34:28;;;;;;;4.78;1.27;;;15.40;99.90;;;;;;5062868;28;20029;-93
2023/08/18 00:36:53;;;;;;;6.93;1.17;;;15.40;99.90;;;;;;5070597;28;20441;-94
2023/08/18 00:39:19;;;;;;;5.88;1.20;;;15.40;99.90;;;;;;5053965;28;20025;-93
2023/08/18 00:41:45;;;;;;;6.57;1.10;;;15.40;99.90;;;;;;5069787;28;20051;-91
2023/08/18 00:44:10;;;;;;;4.65;1.33;;;15.40;99.90;;;;;;5067699;28;20426;-94
2023/08/18 00:46:36;;;;;;;4.68;1.15;;;15.40;99.90;;;;;;5063219;28;20049;-93
2023/08/18 00:49:06;;;;;;;5.50;1.85;;;15.40;99.90;;;;;;5064059;28;20025;-94
2023/08/18 00:51:34;;;;;;;6.50;1.13;;;15.30;99.90;;;;;;5064315;28;20037;-94
2023/08/18 00:54:00;;;;;;;4.75;1.27;;;15.30;99.90;;;;;;5063707;28;20044;-93
2023/08/18 00:56:26;;;;;;;5.30;1.23;;;15.30;99.90;;;;;;5064765;28;20025;-94
2023/08/18 00:58:52;;;;;;;5.72;1.15;;;15.30;99.90;;;;;;5062928;28;20112;-93
2023/08/18 01:01:18;;;;;;;8.55;1.30;;;15.30;99.90;;;;;;5063497;28;20029;-94
2023/08/18 01:03:44;;;;;;;5.78;1.20;;;15.30;99.90;;;;;;5062155;28;20112;-94
2023/08/18 01:06:10;;;;;;;6.80;1.33;;;15.30;99.90;;;;;;5062282;28;20041;-94
2023/08/18 01:08:36;;;;;;;13.05;2.50;;;15.30;99.90;;;;;;5065852;28;20055;-92
2023/08/18 01:11:25;;;;;;;4.70;1.40;;;15.30;99.90;;;;;;5067531;28;20032;-94
2023/08/18 01:13:58;;;;;;;3.25;1.30;;;15.20;99.90;;;;;;5053927;28;20029;-93
2023/08/18 01:16:27;;;;;;;9.35;1.55;;;15.20;99.90;;;;;;5063833;28;20025;-92
2023/08/18 01:18:54;;;;;;;6.32;1.40;;;15.20;99.90;;;;;;5065187;28;20468;-93
2023/08/18 01:21:22;;;;;;;6.70;1.48;;;15.20;99.90;;;;;;5063174;28;20037;-95
2023/08/18 01:23:47;;;;;;;6.75;1.95;;;15.10;99.90;;;;;;5062239;28;20060;-92
2023/08/18 01:26:13;;;;;;;5.72;1.40;;;15.10;99.90;;;;;;5062954;28;20037;-93
2023/08/18 01:28:40;;;;;;;4.32;1.45;;;15.10;99.90;;;;;;5063070;28;20017;-94
2023/08/18 01:31:18;;;;;;;5.85;1.30;;;15.10;99.90;;;;;;5062451;28;20020;-94
2023/08/18 01:33:49;;;;;;;3.33;1.58;;;15.20;99.90;;;;;;5062286;28;20028;-93
2023/08/18 01:36:17;;;;;;;;;;;15.10;99.90;;;;;;5062392;28;20029;-94
2023/08/18 01:38:45;;;;;;;5.70;1.33;;;15.10;99.90;;;;;;5061738;28;19905;-92
2023/08/18 01:41:12;;;;;;;3.42;1.08;;;15.10;99.90;;;;;;5061073;28;20067;-94
2023/08/18 01:43:38;;;;;;;3.45;1.10;;;15.10;99.90;;;;;;5061502;28;20029;-92
2023/08/18 01:46:04;;;;;;;4.82;1.33;;;15.00;99.90;;;;;;5061652;28;20041;-95
2023/08/18 01:48:29;;;;;;;7.30;1.50;;;15.00;99.90;;;;;;5061937;28;20606;-93
2023/08/18 01:50:55;;;;;;;7.78;1.50;;;15.10;99.90;;;;;;5061242;28;20024;-92
2023/08/18 01:53:21;;;;;;;7.93;1.40;;;15.00;99.90;;;;;;5062349;28;20029;-92
2023/08/18 01:55:47;;;;;;;9.60;1.38;;;15.10;99.90;;;;;;5063212;28;20516;-94
2023/08/18 01:58:13;;;;;;;8.43;1.58;;;15.00;99.90;;;;;;5062242;28;20025;-91
2023/08/18 02:00:39;;;;;;;6.43;1.33;;;15.00;99.90;;;;;;5063340;28;20017;-92
2023/08/18 02:03:05;;;;;;;3.42;1.20;;;15.00;99.90;;;;;;5061897;28;20047;-91
2023/08/18 02:05:30;;;;;;;9.38;1.70;;;15.00;99.90;;;;;;5063592;28;20053;-94
2023/08/18 02:07:57;;;;;;;3.88;1.20;;;15.00;99.90;;;;;;5063403;28;20049;-95
2023/08/18 02:10:23;;;;;;;10.00;1.65;;;14.90;99.90;;;;;;5064252;28;20033;-94
2023/08/18 02:12:49;;;;;;;4.60;1.50;;;15.00;99.90;;;;;;5063095;28;20090;-92
2023/08/18 02:15:14;;;;;;;8.07;1.25;;;14.90;99.90;;;;;;5063749;28;20032;-92
2023/08/18 02:17:40;;;;;;;5.88;2.15;;;14.90;99.90;;;;;;5068092;28;20077;-89
2023/08/18 02:20:08;;;;;;;5.32;1.30;;;14.90;99.90;;;;;;5079121;28;20029;-89
2023/08/18 02:22:34;;;;;;;5.00;1.20;;;14.90;99.90;;;;;;5078282;28;20012;-89
2023/08/18 02:25:00;;;;;;;6.03;1.40;;;14.90;99.90;;;;;;5078240;28;20093;-88
2023/08/18 02:27:26;;;;;;;6.35;1.30;;;14.80;99.90;;;;;;5094371;28;20049;-91
2023/08/18 02:29:52;;;;;;;6.05;1.33;;;14.80;99.90;;;;;;5094140;28;20055;-90
2023/08/18 02:32:18;;;;;;;7.57;1.67;;;14.80;99.90;;;;;;5063981;28;20029;-93
2023/08/18 02:34:45;;;;;;;6.40;1.38;;;14.80;99.90;;;;;;5066555;28;20052;-92
2023/08/18 02:37:11;;;;;;;5.13;1.50;;;14.80;99.90;;;;;;5063410;28;20544;-94
2023/08/18 02:39:38;;;;;;;4.53;1.30;;;14.80;99.90;;;;;;5063128;28;20021;-92
2023/08/18 02:42:04;;;;;;;7.53;1.33;;;14.80;99.90;;;;;;5062621;28;20027;-93
2023/08/18 02:44:31;;;;;;;9.13;1.40;;;14.80;99.90;;;;;;5069609;28;20021;-91
2023/08/18 02:46:57;;;;;;;5.22;1.10;;;14.80;99.90;;;;;;5050033;28;20041;-94
2023/08/18 02:49:22;;;;;;;5.85;1.30;;;14.90;99.90;;;;;;5047182;28;20031;-93
2023/08/18 02:51:48;;;;;;;3.40;1.30;;;14.80;99.90;;;;;;5043845;28;20025;-90
2023/08/18 02:54:14;;;;;;;3.78;1.40;;;14.90;99.90;;;;;;5045024;28;20032;-93
2023/08/18 02:56:39;;;;;;;4.05;1.55;;;14.80;99.90;;;;;;5038818;28;20599;-94
2023/08/18 02:59:06;;;;;;;3.50;1.20;;;14.80;99.90;;;;;;5038232;28;20028;-95
2023/08/18 03:01:32;;;;;;;8.45;1.50;;;14.90;99.90;;;;;;5043267;28;20031;-94
2023/08/18 03:03:58;;;;;;;5.45;1.38;;;14.80;99.90;;;;;;5044098;28;20035;-93
2023/08/18 03:06:23;;;;;;;9.70;1.60;;;14.80;99.90;;;;;;5061771;28;20084;-94
2023/08/18 03:08:49;;;;;;;5.70;1.23;;;14.80;99.90;;;;;;5062219;28;20052;-95
2023/08/18 03:11:15;;;;;;;3.88;1.33;;;14.80;99.90;;;;;;5054036;28;20040;-93
2023/08/18 03:13:40;;;;;;;4.70;1.42;;;14.80;99.90;;;;;;5045196;28;20025;-95
2023/08/18 03:16:06;;;;;;;11.35;1.92;;;14.80;99.90;;;;;;5060462;28;20029;-94
2023/08/18 03:18:33;;;;;;;6.93;1.42;;;14.80;99.90;;;;;;5061247;28;20021;-94
2023/08/18 03:21:01;;;;;;;4.80;1.30;;;14.80;99.90;;;;;;5059903;28;20025;-95
2023/08/18 03:23:27;;;;;;;5.57;1.30;;;14.80;99.90;;;;;;5040965;28;20051;-92
2023/08/18 03:26:03;;;;;;;6.00;1.58;;;14.80;99.90;;;;;;5043814;28;20029;-93
2023/08/18 03:28:31;;;;;;;6.18;1.50;;;14.80;99.90;;;;;;5043539;28;20025;-94
2023/08/18 03:31:01;;;;;;;5.68;2.25;;;14.80;99.90;;;;;;5043199;28;20048;-95
2023/08/18 03:33:27;;;;;;;3.45;1.75;;;14.70;99.90;;;;;;5043642;28;20096;-93
2023/08/18 03:35:53;;;;;;;4.63;1.65;;;14.80;99.90;;;;;;5043499;28;20067;-94
2023/08/18 03:38:19;;;;;;;7.28;1.60;;;14.80;99.90;;;;;;5067411;28;20049;-93
2023/08/18 03:40:44;;;;;;;5.90;1.52;;;14.70;99.90;;;;;;5068239;28;20025;-92
2023/08/18 03:43:10;;;;;;;10.57;1.90;;;14.70;99.90;;;;;;5066284;28;20097;-91
2023/08/18 03:45:36;;;;;;;3.85;1.48;;;14.80;99.90;;;;;;5048216;28;20116;-94
2023/08/18 03:48:01;;;;;;;3.83;1.45;;;14.70;99.90;;;;;;5043975;28;20507;-93
2023/08/18 03:50:27;;;;;;;3.35;1.40;;;14.70;99.90;;;;;;5044766;28;20060;-93
2023/08/18 03:52:55;;;;;;;10.35;1.63;;;14.70;99.90;;;;;;5043763;28;20025;-94
2023/08/18 03:55:21;;;;;;;9.48;1.70;;;14.70;99.90;;;;;;5059195;28;20020;-94
2023/08/18 03:57:46;;;;;;;5.40;1.48;;;14.70;99.90;;;;;;5059212;28;20102;-94
2023/08/18 04:00:12;;;;;;;5.47;1.67;;;14.70;99.90;;;;;;5060813;28;20057;-95
2023/08/18 04:02:38;;;;;;;7.57;1.83;;;14.60;99.90;;;;;;5061251;28;20062;-94
2023/08/18 04:05:04;;;;;;;5.45;1.65;;;14.60;99.90;;;;;;5044327;28;20540;-94
2023/08/18 04:07:30;;;;;;;6.60;1.80;;;14.60;99.90;;;;;;5044498;28;20041;-94
2023/08/18 04:09:56;;;;;;;8.32;1.90;;;14.60;99.90;;;;;;5045503;28;20036;-94
2023/08/18 04:12:21;;;;;;;6.55;1.70;;;14.60;99.90;;;;;;5043223;28;20055;-93
2023/08/18 04:14:47;;;;;;;4.45;1.50;;;14.60;99.90;;;;;;5043167;28;20033;-92
2023/08/18 04:17:13;;;;;;;5.63;1.80;;;14.60;99.90;;;;;;5060265;28;20029;-93
2023/08/18 04:19:39;;;;;;;6.90;1.80;;;14.60;99.90;;;;;;5043250;28;20029;-94
2023/08/18 04:22:04;;;;;;;8.48;2.05;;;14.60;99.90;;;;;;5045031;28;20030;-95
2023/08/18 04:24:30;;;;;;;5.13;2.03;;;14.50;99.90;;;;;;5061664;28;20433;-96
2023/08/18 04:26:59;;;;;;;4.40;1.70;;;14.50;99.90;;;;;;5060695;28;20623;-94
2023/08/18 04:29:28;;;;;;;8.73;2.50;;;14.50;99.90;;;;;;5043214;28;20021;-95
2023/08/18 04:31:54;;;;;;;6.88;2.33;;;14.50;99.90;;;;;;5044415;28;20025;-95
2023/08/18 04:34:20;;;;;;;7.43;2.08;;;14.60;99.90;;;;;;5044774;28;20028;-94
2023/08/18 04:36:46;;;;;;;6.40;2.15;;;14.50;99.90;;;;;;5043431;28;20092;-94
2023/08/18 04:39:12;;;;;;;6.63;2.42;;;14.50;99.90;;;;;;5043880;28;20078;-94
2023/08/18 04:41:37;;;;;;;5.78;2.20;;;14.50;99.90;;;;;;5062660;28;20036;-94
2023/08/18 04:44:04;;;;;;;8.32;2.13;;;14.60;99.90;;;;;;5043660;28;20036;-92
2023/08/18 04:46:31;;;;;;;7.43;2.17;;;14.60;99.90;;;;;;5054894;28;20136;-93
2023/08/18 04:48:57;;;;;;;7.30;2.80;;;14.50;99.90;;;;;;5058533;28;20037;-96
2023/08/18 04:51:23;;;;;;;5.75;2.03;;;14.60;99.90;;;;;;5062209;28;20025;-95
2023/08/18 04:53:49;;;;;;;12.07;2.55;;;14.50;99.90;;;;;;5062118;28;20028;-93
2023/08/18 04:56:15;;;;;;;6.53;2.08;;;14.50;99.90;;;;;;5063946;28;20078;-94
2023/08/18 04:58:41;;;;;;;4.95;2.10;;;14.50;99.90;;;;;;5057117;28;20033;-92
2023/08/18 05:01:07;;;;;;;9.50;2.50;;;14.50;99.90;;;;;;5064898;28;20068;-95
2023/08/18 05:03:33;;;;;;;11.85;2.05;;;14.50;99.90;;;;;;5060402;28;20053;-93
2023/08/18 05:06:08;;;;;;;8.48;1.95;;;14.50;99.90;;;;;;5061421;28;20048;-94
2023/08/18 05:08:40;;;;;;;9.57;2.33;;;14.50;99.90;;;;;;5062785;28;20033;-95
2023/08/18 05:11:10;;;;;;;11.57;2.38;;;14.50;99.90;;;;;;5068911;28;20029;-96
2023/08/18 05:13:38;;;;;;;7.35;2.42;;;14.50;99.90;;;;;;5086602;28;20044;-93
2023/08/18 05:16:04;;;;;;;6.43;2.75;;;14.50;99.90;;;;;;5062105;28;20060;-95
2023/08/18 05:18:31;;;;;;;9.25;3.35;;;14.50;99.90;;;;;;5061949;28;20464;-94
2023/08/18 05:20:57;;;;;;;8.18;2.28;;;14.50;99.90;;;;;;5060725;28;20187;-96
2023/08/18 05:23:24;;;;;;;9.70;2.25;;;14.60;99.90;;;;;;5061627;28;20028;-94
2023/08/18 05:25:54;;;;;;;5.97;2.05;;;14.60;99.90;;;;;;5062636;28;20476;-93
2023/08/18 05:28:20;;;;;;;3.07;1.97;;;14.60;99.90;;;;;;5061424;28;20036;-93
2023/08/18 05:30:47;;;;;;;5.15;1.70;;;14.60;99.90;;;;;;5066615;28;20079;-92
2023/08/18 05:33:13;;;;;;;5.10;1.73;;;14.60;99.90;;;;;;5070210;28;20091;-94
2023/08/18 05:35:38;;;;;;;12.90;2.20;;;14.60;99.90;;;;;;5067811;28;20495;-94
2023/08/18 05:38:10;;;;;;;6.68;2.63;;;14.60;99.90;;;;;;5060363;28;20025;-93
2023/08/18 05:40:39;;;;;;;8.63;2.20;;;14.60;99.90;;;;;;5062485;28;20029;-95
2023/08/18 05:43:05;;;;;;;22.08;4.15;;;14.60;99.90;;;;;;5061192;28;20033;-94
2023/08/18 05:45:31;;;;;;;11.30;2.28;;;14.60;99.90;;;;;;5060057;28;20053;-91
2023/08/18 05:47:57;;;;;;;6.32;2.00;;;14.60;99.90;;;;;;5062320;28;20036;-94
2023/08/18 05:50:23;;;;;;;6.88;2.42;;;14.60;99.90;;;;;;5063438;28;20080;-93
2023/08/18 05:52:49;;;;;;;9.15;3.55;;;14.60;99.90;;;;;;5060816;28;20131;-94
2023/08/18 05:55:15;;;;;;;6.22;2.35;;;14.60;99.90;;;;;;5061651;28;20083;-93
2023/08/18 05:57:41;;;;;;;7.13;2.33;;;14.60;99.90;;;;;;5062312;28;20032;-96
2023/08/18 06:00:10;;;;;;;10.52;2.25;;;14.50;99.90;;;;;;5061547;28;20025;-94
2023/08/18 06:02:36;;;;;;;9.48;3.40;;;14.60;99.90;;;;;;5061591;28;20032;-95
2023/08/18 06:05:02;;;;;;;9.32;2.55;;;14.60;99.90;;;;;;5061914;28;20112;-95
2023/08/18 06:07:27;;;;;;;5.85;2.25;;;14.60;99.90;;;;;;5061182;28;20040;-94
2023/08/18 06:09:53;;;;;;;13.18;3.08;;;14.60;99.90;;;;;;5060749;28;20096;-94
2023/08/18 06:12:18;;;;;;;5.25;2.47;;;14.60;99.90;;;;;;5062003;28;20025;-93
2023/08/18 06:14:44;;;;;;;6.97;2.70;;;14.60;99.90;;;;;;5061281;28;20021;-94
2023/08/18 06:17:10;;;;;;;9.45;2.63;;;14.60;99.90;;;;;;5060025;28;20032;-94
2023/08/18 06:19:35;;;;;;;7.13;2.50;;;14.60;99.90;;;;;;5061067;28;20029;-94
2023/08/18 06:22:01;;;;;;;9.68;2.80;;;14.60;99.90;;;;;;5060417;28;20438;-95
2023/08/18 06:24:26;;;;;;;10.55;2.80;;;14.50;99.90;;;;;;5061287;28;20037;-94
2023/08/18 06:26:52;;;;;;;9.82;3.13;;;14.50;99.90;;;;;;5058401;28;20043;-95
2023/08/18 06:29:19;;;;;;;16.08;3.80;;;14.50;99.90;;;;;;5061235;28;20174;-94
2023/08/18 06:31:45;;;;;;;4.70;2.22;;;14.50;99.90;;;;;;5061999;28;20071;-94
2023/08/18 06:34:11;;;;;;;5.40;2.45;;;14.50;99.90;;;;;;5061944;28;20028;-95
2023/08/18 06:36:37;;;;;;;9.02;2.78;;;14.50;99.90;;;;;;5063156;28;20056;-94
2023/08/18 06:39:03;;;;;;;5.43;3.28;;;14.50;99.90;;;;;;5055623;28;20105;-93
2023/08/18 06:41:28;;;;;;;13.07;3.58;;;14.50;99.90;;;;;;5062749;28;20054;-95
2023/08/18 06:43:54;;;;;;;9.80;3.67;;;14.50;99.90;;;;;;5071051;28;20024;-95
2023/08/18 06:46:20;;;;;;;14.90;3.92;;;14.60;99.90;;;;;;5065677;28;20110;-94
2023/08/18 06:48:46;;;;;;;5.82;3.40;;;14.60;99.90;;;;;;5064702;28;20024;-94
2023/08/18 06:51:11;;;;;;;6.82;4.03;;;14.60;99.90;;;;;;5046920;28;20396;-95
2023/08/18 06:53:38;;;;;;;7.05;4.05;;;14.60;99.90;;;;;;5050134;28;20044;-91
2023/08/18 06:56:04;;;;;;;8.48;3.97;;;14.60;99.90;;;;;;5049754;28;20044;-95
2023/08/18 06:58:31;;;;;;;7.75;4.03;;;14.70;99.90;;;;;;5045463;28;20021;-95
2023/08/18 07:00:56;;;;;;;6.57;4.72;;;14.60;99.90;;;;;;5047673;28;20017;-94
2023/08/18 07:03:22;;;;;;;9.60;5.13;;;14.70;99.90;;;;;;5064873;28;20058;-94
2023/08/18 07:05:48;;;;;;;10.23;5.07;;;14.70;99.90;;;;;;5046084;28;20060;-95
2023/08/18 07:08:13;;;;;;;12.13;6.68;;;14.70;99.90;;;;;;5064627;28;20056;-94
2023/08/18 07:10:39;;;;;;;8.65;5.53;;;14.70;99.90;;;;;;5048873;28;20021;-94
2023/08/18 07:13:05;;;;;;;11.45;6.13;;;14.70;99.90;;;;;;5069475;28;20040;-94
2023/08/18 07:15:31;;;;;;;8.95;6.35;;;14.70;99.90;;;;;;5071137;28;20452;-94
2023/08/18 07:17:57;;;;;;;8.95;6.18;;;14.70;99.90;;;;;;5067191;28;20117;-92
2023/08/18 07:20:23;;;;;;;15.63;7.28;;;14.70;99.90;;;;;;5039634;28;20033;-95
2023/08/18 07:22:49;;;;;;;12.13;7.30;;;14.70;99.90;;;;;;5056685;28;20476;-93
2023/08/18 07:25:14;;;;;;;11.50;6.38;;;14.70;99.90;;;;;;5032938;28;20025;-95
2023/08/18 07:27:40;;;;;;;11.05;7.65;;;14.70;99.90;;;;;;5027750;28;20047;-93
2023/08/18 07:30:06;;;;;;;10.50;7.20;;;14.70;99.90;;;;;;5038254;28;20034;-93
2023/08/18 07:32:32;;;;;;;13.27;7.53;;;14.70;99.90;;;;;;5061275;28;20391;-95
2023/08/18 07:35:01;;;;;;;12.75;7.78;;;14.70;99.90;;;;;;5044470;28;20031;-95
2023/08/18 07:37:26;;;;;;;13.70;8.43;;;14.60;99.90;;;;;;5043606;28;20033;-95
2023/08/18 07:39:52;;;;;;;13.20;9.07;;;14.70;99.90;;;;;;5044238;28;20025;-94
2023/08/18 07:42:18;;;;;;;16.02;8.32;;;14.70;99.90;;;;;;5043164;28;20044;-94
2023/08/18 07:44:44;;;;;;;15.52;9.43;;;14.60;99.90;;;;;;5061461;28;20017;-95
2023/08/18 07:47:10;;;;;;;15.57;9.82;;;14.60;99.90;;;;;;5061581;28;20124;-96
2023/08/18 07:49:36;;;;;;;16.48;9.48;;;14.70;99.90;;;;;;5043551;28;20064;-94
2023/08/18 07:52:02;;;;;;;22.98;11.68;;;14.70;99.90;;;;;;5045201;28;20079;-94
2023/08/18 07:54:27;;;;;;;16.45;10.88;;;14.70;99.90;;;;;;5042590;28;20033;-96
2023/08/18 07:56:53;;;;;;;19.70;13.10;;;14.70;99.90;;;;;;5052605;28;20036;-93
2023/08/18 07:59:19;;;;;;;15.82;10.30;;;14.70;99.90;;;;;;5054011;28;20032;-91
2023/08/18 08:01:44;;;;;;;25.25;12.35;;;14.70;99.90;;;;;;5048364;28;20029;-95
2023/08/18 08:04:10;;;;;;;24.75;13.95;;;14.80;99.90;;;;;;5043150;28;20052;-94
2023/08/18 08:06:36;;;;;;;28.70;15.07;;;14.80;99.90;;;;;;5044069;28;20047;-96
2023/08/18 08:09:08;;;;;;;25.73;15.05;;;14.90;99.90;;;;;;5045025;28;20028;-94
2023/08/18 08:11:34;;;;;;;29.58;15.18;;;14.90;99.90;;;;;;5043865;28;20029;-95
2023/08/18 08:14:00;;;;;;;18.88;12.50;;;14.90;99.90;;;;;;5045192;28;20025;-94
2023/08/18 08:16:27;;;;;;;30.15;15.60;;;14.90;99.90;;;;;;5045244;28;20051;-93
2023/08/18 08:18:52;;;;;;;27.27;15.80;;;14.90;99.90;;;;;;5053497;28;20013;-93
2023/08/18 08:21:18;;;;;;;36.70;15.00;;;15.00;99.90;;;;;;5047502;28;20029;-93
2023/08/18 08:23:44;;;;;;;36.05;18.70;;;15.00;99.90;;;;;;5046691;28;20085;-93
2023/08/18 08:26:10;;;;;;;28.60;16.02;;;15.00;99.90;;;;;;5064037;28;20250;-95
2023/08/18 08:28:36;;;;;;;25.25;16.48;;;15.00;99.90;;;;;;5049113;28;20044;-95
2023/08/18 08:31:02;;;;;;;31.17;16.67;;;15.10;99.90;;;;;;5043825;28;20059;-95
2023/08/18 08:33:27;;;;;;;30.33;16.40;;;15.10;99.90;;;;;;5045546;28;20025;-94
2023/08/18 08:35:53;;;;;;;30.85;16.65;;;15.20;99.90;;;;;;5043864;28;20373;-92
2023/08/18 08:38:19;;;;;;;38.03;16.67;;;15.20;99.90;;;;;;5042782;28;20021;-92
2023/08/18 08:40:44;;;;;;;25.92;15.55;;;15.30;99.90;;;;;;5046195;28;20131;-92
2023/08/18 08:43:10;;;;;;;23.35;15.13;;;15.30;99.90;;;;;;5046337;28;20431;-94
2023/08/18 08:45:38;;;;;;;30.25;15.13;;;15.30;99.90;;;;;;5052092;28;20056;-94
2023/08/18 08:48:07;;;;;;;26.48;13.68;;;15.40;99.90;;;;;;5056894;28;20033;-95
2023/08/18 08:50:40;;;;;;;20.75;12.27;;;15.40;99.90;;;;;;5060439;28;20029;-93
2023/08/18 08:53:10;;;;;;;23.25;10.55;;;15.50;99.90;;;;;;5063868;28;20032;-93
2023/08/18 08:55:37;;;;;;;16.02;9.00;;;15.50;99.90;;;;;;5055945;28;20029;-93
2023/08/18 08:58:04;;;;;;;16.58;9.05;;;15.50;99.90;;;;;;5055940;28;20480;-94
2023/08/18 09:00:30;;;;;;;13.52;10.02;;;15.50;99.90;;;;;;5056027;28;20492;-94
2023/08/18 09:03:03;;;;;;;20.85;8.75;;;15.50;99.90;;;;;;5055493;28;20063;-95
2023/08/18 09:05:33;;;;;;;17.27;7.72;;;15.60;99.90;;;;;;5055472;28;20025;-96
2023/08/18 09:07:59;;;;;;;16.73;7.60;;;15.60;99.90;;;;;;5056141;28;20127;-94
2023/08/18 09:10:26;;;;;;;10.82;7.57;;;15.60;99.90;;;;;;5057570;28;20366;-94
2023/08/18 09:12:52;;;;;;;11.75;7.25;;;15.60;99.90;;;;;;5061945;28;20021;-96
2023/08/18 09:15:18;;;;;;;13.38;8.38;;;15.60;99.90;;;;;;5063448;28;20032;-95
2023/08/18 09:17:44;;;;;;;17.15;8.10;;;15.60;99.90;;;;;;5055876;28;20099;-94
2023/08/18 09:20:13;;;;;;;12.65;6.18;;;15.60;99.90;;;;;;5053433;28;20021;-96
2023/08/18 09:22:40;;;;;;;9.63;5.25;;;15.70;99.90;;;;;;5057016;28;20075;-94
2023/08/18 09:25:08;;;;;;;7.70;4.00;;;15.70;99.90;;;;;;5053109;28;20045;-93
2023/08/18 09:27:34;;;;;;;6.35;3.80;;;15.80;99.90;;;;;;5055709;28;20060;-95
2023/08/18 09:29:59;;;;;;;5.03;3.75;;;15.80;99.90;;;;;;5056601;28;20028;-96
2023/08/18 09:32:27;;;;;;;3.50;2.33;;;15.90;99.90;;;;;;5055997;28;20021;-95
2023/08/18 09:34:53;;;;;;;3.65;2.05;;;16.00;99.90;;;;;;5055630;28;20032;-95
2023/08/18 09:37:19;;;;;;;2.22;1.60;;;16.10;99.90;;;;;;5056345;28;20044;-93
2023/08/18 09:39:45;;;;;;;1.35;1.13;;;16.10;99.90;;;;;;5060675;28;20021;-94
2023/08/18 09:42:12;;;;;;;0.98;0.88;;;16.20;99.90;;;;;;5074015;28;20020;-95
2023/08/18 09:44:38;;;;;;;0.80;0.80;;;16.20;99.90;;;;;;5066716;28;20025;-95
2023/08/18 09:47:06;;;;;;;1.13;0.70;;;16.20;99.90;;;;;;5048589;28;20049;-95
2023/08/18 09:49:38;;;;;;;1.98;0.80;;;16.20;99.90;;;;;;5045642;28;20036;-95
2023/08/18 09:52:05;;;;;;;1.95;0.75;;;16.20;99.90;;;;;;5045597;28;20032;-94
2023/08/18 09:54:51;;;;;;;1.20;1.00;;;16.20;99.90;;;;;;5046486;28;20021;-96
2023/08/18 09:57:24;;;;;;;0.77;0.60;;;16.30;99.90;;;;;;5041435;28;20089;-94
2023/08/18 09:59:55;;;;;;;1.67;0.88;;;16.30;99.90;;;;;;5057059;28;20049;-95
2023/08/18 10:02:28;;;;;;;0.85;0.68;;;16.40;99.90;;;;;;5065058;28;20099;-93
2023/08/18 10:04:55;;;;;;;1.08;0.40;;;16.40;99.90;;;;;;5039742;28;20025;-95
2023/08/18 10:07:23;;;;;;;1.10;0.47;;;16.50;99.90;;;;;;5056813;28;20082;-92
2023/08/18 10:09:49;;;;;;;0.50;0.50;;;16.60;99.90;;;;;;5038970;28;20024;-93
2023/08/18 10:12:15;;;;;;;0.77;0.60;;;16.70;99.90;;;;;;5050951;28;20089;-92
2023/08/18 10:14:41;;;;;;;3.72;0.57;;;16.70;99.90;;;;;;5055170;28;20013;-94
2023/08/18 10:17:08;;;;;;;0.65;0.57;;;16.80;99.90;;;;;;5029560;28;20040;-93
2023/08/18 10:19:53;;;;;;;0.77;0.60;;;16.80;99.90;;;;;;5062928;28;20031;-94
2023/08/18 10:22:19;;;;;;;0.60;0.60;;;16.90;99.90;;;;;;5055673;28;20629;-94
2023/08/18 10:24:50;;;;;;;0.82;0.82;;;17.00;99.90;;;;;;5036276;28;20033;-93
2023/08/18 10:27:32;;;;;;;0.68;0.68;;;17.00;99.90;;;;;;5038747;28;20040;-94
2023/08/18 10:30:10;;;;;;;0.77;0.77;;;17.00;99.90;;;;;;5052251;28;20391;-95
2023/08/18 10:32:36;;;;;;;1.33;1.20;;;17.00;99.90;;;;;;5053173;28;20082;-93
2023/08/18 10:35:27;;;;;;;1.77;0.98;;;17.00;99.90;;;;;;5034526;28;20039;-94
2023/08/18 10:38:01;;;;;;;1.83;1.40;;;17.00;99.90;;;;;;5052313;28;20037;-93
2023/08/18 10:40:30;;;;;;;3.85;2.53;;;16.90;99.90;;;;;;5039766;28;20024;-95
2023/08/18 10:43:14;;;;;;;4.97;3.30;;;17.00;99.90;;;;;;5039088;28;20029;-94
2023/08/18 10:45:41;;;;;;;4.40;3.13;;;17.00;99.90;;;;;;5056075;28;20048;-94
2023/08/18 10:48:08;;;;;;;5.15;3.90;;;17.00;99.90;;;;;;5054940;28;20083;-94
2023/08/18 10:50:36;;;;;;;4.90;4.15;;;17.10;99.90;;;;;;5049799;28;20067;-95
2023/08/18 10:53:04;;;;;;;9.25;3.70;;;17.20;99.90;;;;;;5055658;28;20537;-94
2023/08/18 10:55:31;;;;;;;7.63;4.00;;;17.30;99.90;;;;;;5031754;28;20021;-96
2023/08/18 10:57:57;;;;;;;6.05;3.58;;;17.40;99.90;;;;;;5056884;28;20100;-93
2023/08/18 11:00:32;;;;;;;14.23;4.95;;;17.50;99.90;;;;;;5056826;28;20025;-94
2023/08/18 11:02:58;;;;;;;11.68;4.60;;;17.50;99.90;;;;;;5042944;28;20141;-95
2023/08/18 11:05:23;;;;;;;5.43;3.45;;;17.60;99.90;;;;;;5046313;28;20032;-95
2023/08/18 11:07:52;;;;;;;7.30;4.03;;;17.60;99.90;;;;;;5064988;28;20041;-95
2023/08/18 11:10:20;;;;;;;8.27;4.88;;;17.60;99.90;;;;;;5047262;28;20029;-96
2023/08/18 11:12:48;;;;;;;7.78;3.85;;;17.60;99.90;;;;;;5069313;28;20025;-95
2023/08/18 11:15:15;;;;;;;7.47;3.38;;;17.50;99.90;;;;;;5074925;28;20021;-93
2023/08/18 11:17:43;;;;;;;6.57;3.78;;;17.50;99.90;;;;;;5051579;28;20579;-94
2023/08/18 11:20:11;;;;;;;7.35;4.35;;;17.50;99.90;;;;;;5048290;28;20066;-95
2023/08/18 11:22:39;;;;;;;9.27;4.45;;;17.40;99.90;;;;;;5042406;28;20486;-95
2023/08/18 11:25:05;;;;;;;9.07;4.88;;;17.40;99.90;;;;;;5064089;28;20031;-95
2023/08/18 11:27:34;;;;;;;8.57;4.78;;;17.40;99.90;;;;;;5045501;28;20040;-93
2023/08/18 11:30:04;;;;;;;10.70;4.88;;;17.30;99.90;;;;;;5064029;28;20021;-91
2023/08/18 11:32:30;;;;;;;10.93;5.00;;;17.40;99.90;;;;;;5058008;28;20002;-92
2023/08/18 11:34:56;;;;;;;8.40;4.32;;;17.40;99.90;;;;;;5075755;28;20368;-92
2023/08/18 11:37:23;;;;;;;11.82;4.40;;;17.30;99.90;;;;;;5074578;28;20025;-91
2023/08/18 11:39:49;;;;;;;10.98;4.75;;;17.30;99.90;;;;;;5075199;28;20001;-89
2023/08/18 11:42:15;;;;;;;8.80;4.43;;;17.20;99.90;;;;;;5076364;28;20085;-90
2023/08/18 11:44:41;;;;;;;11.73;4.75;;;17.30;99.90;;;;;;5072278;28;20048;-92
2023/08/18 11:47:08;;;;;;;7.63;4.75;;;17.30;99.90;;;;;;5063909;28;20044;-94
2023/08/18 11:49:35;;;;;;;8.05;4.78;;;17.30;99.90;;;;;;5044326;28;20029;-94
2023/08/18 11:52:06;;;;;;;8.68;4.85;;;17.30;99.90;;;;;;5050121;28;20033;-95
2023/08/18 11:54:35;;;;;;;;;;;17.30;99.90;;;;;;5066430;28;20029;-92
2023/08/18 11:57:02;;;;;;;8.27;4.05;;;17.40;99.90;;;;;;5045067;28;19915;-92
2023/08/18 11:59:28;;;;;;;8.27;4.50;;;17.40;99.90;;;;;;5062346;28;20035;-93
2023/08/18 12:01:55;;;;;;;9.95;4.18;;;17.40;99.90;;;;;;5061300;28;20390;-91
2023/08/18 12:04:25;;;;;;;5.53;3.47;;;17.40;99.90;;;;;;5046514;28;20040;-93
2023/08/18 12:06:52;;;;;;;8.48;3.60;;;17.40;99.90;;;;;;5044589;28;20100;-93
2023/08/18 12:09:18;;;;;;;7.97;4.22;;;17.40;99.90;;;;;;5044007;28;20120;-92
2023/08/18 12:11:44;;;;;;;7.45;3.47;;;17.40;99.90;;;;;;5042831;28;20018;-91
2023/08/18 12:14:09;;;;;;;6.90;4.07;;;17.40;99.90;;;;;;5042964;28;20039;-92
2023/08/18 12:16:35;;;;;;;8.63;3.60;;;17.40;99.90;;;;;;5042599;28;20025;-92
2023/08/18 12:19:04;;;;;;;10.43;3.88;;;17.40;99.90;;;;;;5043002;28;20029;-93
2023/08/18 12:21:34;;;;;;;9.02;3.88;;;17.40;99.90;;;;;;5043091;28;20033;-94
2023/08/18 12:24:07;;;;;;;9.55;3.60;;;17.40;99.90;;;;;;5061326;28;20040;-93
2023/08/18 12:26:34;;;;;;;11.95;3.47;;;17.40;99.90;;;;;;5044806;28;20128;-93
2023/08/18 12:29:04;;;;;;;6.88;3.92;;;17.40;99.90;;;;;;5043843;28;20151;-92
2023/08/18 12:31:33;;;;;;;12.52;4.85;;;17.30;99.90;;;;;;5042411;28;20028;-92
2023/08/18 12:34:05;;;;;;;14.45;4.35;;;17.30;99.90;;;;;;5048595;28;20025;-92
2023/08/18 12:36:32;;;;;;;7.68;3.92;;;17.30;99.90;;;;;;5045590;28;20035;-93
2023/08/18 12:38:57;;;;;;;11.38;4.28;;;17.30;99.90;;;;;;5043529;28;20487;-93
2023/08/18 12:41:25;;;;;;;12.75;3.80;;;17.30;99.90;;;;;;5042977;28;20033;-91